Portada
METAR-TAF:

METAR-TAF

Aeroports :

Nakhon Ratchasima, Tailàndia

latitud: 14-56-58N, longitud: 102-18-45E, altitud: 233 m

Observació

L'informe es va fer fa 6 hores i 26 minuts, a les 13:00 UTC
Vent calma
Temperatura 27°C
Humitat 54%
Pressió 1014 hPa
Visibilitat: 7000 m

METAR: VTUQ 221300Z 00000KT 7000 NSC 27/17 Q1014 NOSIG

Hora: 02:26 (19:26 UTC)

Pronòstic

L'informe es va fer fa 2 hores i 26 minuts, a les 17:00 UTC
Pronòstic vàlid del 22 a les 18 UTC al 23 a les 18 UTC
Vent 4 kt del Sud
Visibilitat: 6000 m
Evolucionant progressivament
l' 22 a les 20 UTC al 22 a les 22 UTC
Visibilitat: 4000 m
boirina
Evolucionant progressivament
l' 23 a les 02 UTC al 23 a les 04 UTC
Visibilitat: 8000 m

TAF: VTUQ 221700Z 2218/2318 17004KT 6000 NSC BECMG 2220/2222 4000 BR BECMG 2302/2304 8000 NSW

Observacions i pronòstics meteorològics de més de 4000 aeroports (METAR i TAF).

Les estacions disponibles són els punts grocs i vermells al mapa.

Posi el ratolí al punt desitjat per veure el nom de l'estació.

Feu clic per veure les observacions i els pronòstics meteorològics.

Per canviar el mapa: feu clic els botons verds amb una creu de color negre per apropar; al botó verd amb un guió per allunyar la imatge; o en les fletxes verdes per a mapes adjacents.


METAR-TAF: